Time;durP1;ratioP1;P1;durP2;ratioP2;P2;SDS_P1;SDS_P2;PMS_P1;PMS_P2;Temp;Humidity;BMP_temperature;BMP_pressure;BME280_temperature;BME280_humidity;BME280_pressure;Samples;Min_cycle;Max_cycle;Signal;HPM_P1;HPM_P2
2023/12/08 00:01:23;;;;;;;0.50;0.50;;;;;;;-1.76;100.00;101137.59;5062999;28;20170;-77
2023/12/08 00:03:49;;;;;;;0.70;0.70;;;;;;;-1.64;100.00;101097.22;5061769;28;20045;-78
2023/12/08 00:06:14;;;;;;;0.60;0.50;;;;;;;-1.70;100.00;101058.25;5062470;28;20044;-76
2023/12/08 00:08:40;;;;;;;0.30;0.30;;;;;;;-1.87;100.00;101041.81;5063278;28;21046;-77
2023/12/08 00:11:06;;;;;;;3.33;3.15;;;;;;;-1.07;100.00;101142.63;5063455;28;20041;-76
2023/12/08 00:13:32;;;;;;;0.43;0.43;;;;;;;-1.46;100.00;101109.38;5062495;28;20048;-77
2023/12/08 00:15:58;;;;;;;0.57;0.57;;;;;;;-1.57;100.00;101046.97;5064786;28;20048;-78
2023/12/08 00:18:24;;;;;;;0.40;0.40;;;;;;;-1.24;100.00;101178.47;5054646;28;20475;-75
2023/12/08 00:20:50;;;;;;;0.40;0.40;;;;;;;-1.95;100.00;101054.19;5057292;28;20064;-76
2023/12/08 00:23:15;;;;;;;2.05;1.95;;;;;;;-1.94;100.00;101055.97;5052280;28;20070;-77
2023/12/08 00:25:41;;;;;;;0.43;0.43;;;;;;;-2.03;100.00;101041.69;5058402;28;20035;-75
2023/12/08 00:28:06;;;;;;;1.75;1.65;;;;;;;-1.96;100.00;101052.44;5054545;28;20050;-77
2023/12/08 00:30:32;;;;;;;0.50;0.50;;;;;;;-1.82;100.00;101096.97;5060720;28;20136;-76
2023/12/08 00:32:58;;;;;;;2.38;2.28;;;;;;;-1.35;100.00;101178.72;5040808;28;20136;-79
2023/12/08 00:35:23;;;;;;;0.43;0.43;;;;;;;-1.92;100.00;101107.47;5048552;28;20041;-76
2023/12/08 00:37:49;;;;;;;1.08;0.98;;;;;;;-2.25;100.00;101037.78;5055799;28;20395;-76
2023/12/08 00:40:16;;;;;;;0.30;0.30;;;;;;;-1.12;100.00;101184.38;5057530;28;20132;-76
2023/12/08 00:42:42;;;;;;;2.40;2.28;;;;;;;-1.45;100.00;101155.81;5062956;28;20047;-76
2023/12/08 00:45:07;;;;;;;1.80;1.20;;;;;;;-2.02;100.00;101088.03;5034109;28;20049;-76
2023/12/08 00:47:33;;;;;;;0.50;0.50;;;;;;;-1.44;100.00;101175.59;5052385;28;20114;-75
2023/12/08 00:49:58;;;;;;;0.40;0.40;;;;;;;-2.09;100.00;101049.88;5062081;28;20392;-77
2023/12/08 00:52:24;;;;;;;0.80;0.80;;;;;;;-1.76;100.00;101056.16;5064163;28;20087;-77
2023/12/08 00:54:49;;;;;;;0.30;0.30;;;;;;;-1.12;100.00;101197.25;5061249;28;20055;-77
2023/12/08 00:57:15;;;;;;;0.40;0.40;;;;;;;-1.78;100.00;101044.03;5067444;28;20048;-77
2023/12/08 00:59:41;;;;;;;1.73;1.63;;;;;;;-0.81;100.00;101179.31;5065740;28;20131;-77
2023/12/08 01:02:07;;;;;;;0.65;0.65;;;;;;;-1.23;100.00;101146.78;5068177;28;20028;-77
2023/12/08 01:04:33;;;;;;;1.52;1.42;;;;;;;-1.29;100.00;101160.16;5065631;28;20048;-77
2023/12/08 01:06:59;;;;;;;0.50;0.50;;;;;;;-1.50;100.00;101078.34;5066134;28;20118;-78
2023/12/08 01:09:24;;;;;;;0.35;0.35;;;;;;;-0.65;100.00;101173.38;5035569;28;20653;-78
2023/12/08 01:11:50;;;;;;;0.40;0.40;;;;;;;-1.04;100.00;101157.38;5036781;28;20078;-77
2023/12/08 01:14:15;;;;;;;0.45;0.45;;;;;;;-1.81;100.00;101057.59;5059243;28;20040;-77
2023/12/08 01:16:41;;;;;;;0.50;0.50;;;;;;;-1.21;100.00;101135.78;5041703;28;20048;-76
2023/12/08 01:19:08;;;;;;;0.30;0.30;;;;;;;-1.24;100.00;101080.63;5067319;28;20488;-75
2023/12/08 01:21:37;;;;;;;0.30;0.30;;;;;;;-1.16;100.00;101120.59;5064787;28;20044;-75
2023/12/08 01:24:03;;;;;;;0.95;0.95;;;;;;;-1.36;100.00;101053.41;5062099;28;20052;-76
2023/12/08 01:26:28;;;;;;;0.60;0.60;;;;;;;-1.06;100.00;101121.22;5048954;28;20041;-78
2023/12/08 01:28:54;;;;;;;0.30;0.30;;;;;;;-0.98;100.00;101118.22;5062320;28;20040;-77
2023/12/08 01:31:19;;;;;;;0.77;0.77;;;;;;;-1.20;100.00;101047.44;5067040;28;20590;-76
2023/12/08 01:33:45;;;;;;;0.40;0.40;;;;;;;-1.24;100.00;101027.47;5061282;28;20473;-77
2023/12/08 01:36:11;;;;;;;0.30;0.30;;;;;;;-1.02;100.00;101111.09;5065590;28;20123;-76
2023/12/08 01:38:36;;;;;;;0.77;0.77;;;;;;;-0.94;100.00;101077.25;5059646;28;20556;-77
2023/12/08 01:41:02;;;;;;;0.40;0.40;;;;;;;-0.98;100.00;101048.69;5060968;28;20130;-76
2023/12/08 01:43:28;;;;;;;0.38;0.38;;;;;;;-1.72;100.00;100992.94;5058387;28;20903;-76
2023/12/08 01:45:56;;;;;;;0.85;0.85;;;;;;;-1.04;100.00;101112.69;5045882;28;20059;-78
2023/12/08 01:48:23;;;;;;;0.70;0.70;;;;;;;-1.11;100.00;101114.91;5039204;28;20460;-77
2023/12/08 01:50:49;;;;;;;0.40;0.40;;;;;;;-0.99;100.00;101065.78;5045589;28;20456;-76
2023/12/08 01:53:15;;;;;;;0.50;0.50;;;;;;;-0.63;100.00;101112.50;5061899;28;20079;-76
2023/12/08 01:55:41;;;;;;;0.40;0.40;;;;;;;-0.61;100.00;101123.75;5063001;28;20037;-77
2023/12/08 01:58:07;;;;;;;0.30;0.30;;;;;;;-0.86;100.00;101049.38;5045142;28;20127;-75
2023/12/08 02:00:33;;;;;;;4.78;4.53;;;;;;;-1.01;100.00;101028.75;5065906;28;20052;-74
2023/12/08 02:02:59;;;;;;;1.38;1.35;;;;;;;-0.74;100.00;101093.84;5060438;28;20089;-76
2023/12/08 02:05:26;;;;;;;1.05;1.05;;;;;;;-1.06;100.00;101105.75;5061262;28;20530;-76
2023/12/08 02:07:53;;;;;;;0.30;0.30;;;;;;;-1.50;100.00;101037.16;5043258;28;20062;-78
2023/12/08 02:10:20;;;;;;;0.52;0.52;;;;;;;-0.91;100.00;101115.19;5061327;28;20052;-77
2023/12/08 02:12:46;;;;;;;0.50;0.50;;;;;;;-1.41;100.00;100977.59;5065871;28;20044;-77
2023/12/08 02:15:12;;;;;;;5.57;5.25;;;;;;;-1.42;100.00;101014.44;5063208;28;20492;-75
2023/12/08 02:17:39;;;;;;;0.30;0.30;;;;;;;-1.09;100.00;101115.00;5062913;28;20052;-77
2023/12/08 02:20:11;;;;;;;2.50;2.40;;;;;;;-0.85;100.00;101123.25;5069425;28;20040;-77
2023/12/08 02:22:37;;;;;;;0.30;0.30;;;;;;;-0.84;100.00;101104.44;5058070;28;20040;-76
2023/12/08 02:25:03;;;;;;;0.30;0.30;;;;;;;-0.69;100.00;101104.41;5065777;28;20050;-77
2023/12/08 02:27:30;;;;;;;1.65;1.58;;;;;;;-0.94;100.00;101023.16;5036330;28;20148;-77
2023/12/08 02:29:56;;;;;;;0.40;0.40;;;;;;;-0.89;100.00;101047.50;5045453;28;20544;-77
2023/12/08 02:32:44;;;;;;;0.30;0.30;;;;;;;-0.27;100.00;101130.81;5046111;28;20080;-75
2023/12/08 02:35:10;;;;;;;0.30;0.30;;;;;;;-1.19;100.00;101048.34;5041401;28;20522;-78
2023/12/08 02:37:40;;;;;;;3.90;3.70;;;;;;;-0.98;100.00;101131.09;5055992;28;20479;-76
2023/12/08 02:40:06;;;;;;;2.80;1.23;;;;;;;-0.73;100.00;101116.22;5062986;28;20488;-78
2023/12/08 02:42:33;;;;;;;0.95;0.95;;;;;;;-1.11;100.00;101004.19;5063216;28;20140;-76
2023/12/08 02:44:59;;;;;;;0.93;0.93;;;;;;;-1.16;100.00;101017.63;5046388;28;20071;-76
2023/12/08 02:47:25;;;;;;;1.38;1.38;;;;;;;-0.94;100.00;101097.84;5065955;28;20127;-77
2023/12/08 02:49:51;;;;;;;0.82;0.82;;;;;;;-0.88;100.00;101046.69;5053803;28;20775;-77
2023/12/08 02:52:16;;;;;;;0.40;0.40;;;;;;;-1.40;100.00;101010.25;5070318;28;20076;-77
2023/12/08 02:54:42;;;;;;;0.85;0.85;;;;;;;-1.25;100.00;101012.81;5068620;28;20048;-77
2023/12/08 02:57:07;;;;;;;0.38;0.30;;;;;;;-1.53;100.00;101016.38;5070592;28;20079;-77
2023/12/08 02:59:33;;;;;;;7.85;7.05;;;;;;;-1.78;100.00;101010.59;5068946;28;20044;-78
2023/12/08 03:01:58;;;;;;;0.95;0.93;;;;;;;-1.00;100.00;101120.69;5067880;28;20029;-78
2023/12/08 03:04:24;;;;;;;1.23;1.20;;;;;;;-1.63;100.00;101021.78;5045638;28;20491;-77
2023/12/08 03:06:49;;;;;;;0.40;0.40;;;;;;;-1.64;100.00;101031.97;5063246;28;20601;-76
2023/12/08 03:09:15;;;;;;;2.25;1.50;;;;;;;-1.35;100.00;101092.91;5051029;28;20060;-76
2023/12/08 03:11:41;;;;;;;0.52;0.52;;;;;;;-1.13;100.00;101092.44;5056668;28;20045;-76
2023/12/08 03:14:07;;;;;;;0.40;0.40;;;;;;;-1.40;100.00;101084.03;5060553;28;20071;-77
2023/12/08 03:16:32;;;;;;;0.40;0.40;;;;;;;-1.03;100.00;101117.97;5057579;28;20127;-76
2023/12/08 03:18:58;;;;;;;0.65;0.65;;;;;;;-1.46;100.00;101045.06;5057246;28;20064;-78
2023/12/08 03:21:24;;;;;;;1.05;1.05;;;;;;;-1.03;100.00;101117.03;5053883;28;20041;-75
2023/12/08 03:23:50;;;;;;;0.40;0.40;;;;;;;-0.73;100.00;101105.03;5040273;28;20048;-76
2023/12/08 03:26:15;;;;;;;1.30;1.20;;;;;;;-0.42;100.00;101146.31;5057678;28;20137;-75
2023/12/08 03:28:41;;;;;;;16.65;12.55;;;;;;;-1.01;100.00;101028.75;5044205;28;20593;-79
2023/12/08 03:31:19;;;;;;;10.20;9.63;;;;;;;-1.57;100.00;101024.72;5059990;28;20094;-77
2023/12/08 03:33:44;;;;;;;0.60;0.60;;;;;;;-1.38;100.00;101044.72;5045768;28;20093;-76
2023/12/08 03:36:10;;;;;;;0.63;0.63;;;;;;;-0.59;100.00;101110.97;5059963;28;20655;-76
2023/12/08 03:38:36;;;;;;;0.52;0.52;;;;;;;-1.34;100.00;101038.91;5063896;28;20059;-79
2023/12/08 03:41:01;;;;;;;0.50;0.50;;;;;;;-1.00;100.00;101027.09;5059690;28;20082;-77
2023/12/08 03:43:27;;;;;;;16.70;10.18;;;;;;;-1.38;100.00;101020.63;5060651;28;20445;-76
2023/12/08 03:45:52;;;;;;;0.50;0.50;;;;;;;-0.34;100.00;101131.28;5058151;28;20048;-76
2023/12/08 03:48:18;;;;;;;0.40;0.40;;;;;;;-1.24;100.00;101030.06;5054080;28;20049;-79
2023/12/08 03:50:43;;;;;;;2.97;2.88;;;;;;;-0.62;100.00;101100.50;5056054;28;20048;-76
2023/12/08 03:53:09;;;;;;;0.50;0.50;;;;;;;-0.20;100.00;101126.88;5061874;28;20039;-79
2023/12/08 03:55:34;;;;;;;1.38;1.35;;;;;;;-0.89;100.00;101015.69;5058115;28;20119;-76
2023/12/08 03:58:00;;;;;;;0.70;0.70;;;;;;;-0.71;100.00;101033.88;5061962;28;20041;-78
2023/12/08 04:00:25;;;;;;;0.57;0.57;;;;;;;-1.10;100.00;100982.81;5058870;28;20052;-76
2023/12/08 04:02:53;;;;;;;0.40;0.40;;;;;;;-0.91;100.00;101040.50;5061707;28;20114;-78
2023/12/08 04:05:19;;;;;;;3.28;3.13;;;;;;;-0.81;100.00;101008.41;5053993;28;20113;-77
2023/12/08 04:07:44;;;;;;;1.58;1.48;;;;;;;-0.45;100.00;101126.38;5058972;28;20033;-78
2023/12/08 04:10:10;;;;;;;10.18;9.27;;;;;;;-0.61;100.00;101122.88;5060892;28;20424;-78
2023/12/08 04:12:35;;;;;;;9.02;8.60;;;;;;;-1.61;100.00;101033.06;5054041;28;20488;-77
2023/12/08 04:15:01;;;;;;;0.85;0.85;;;;;;;-1.34;100.00;101020.00;5055908;28;20044;-77
2023/12/08 04:17:27;;;;;;;0.77;0.77;;;;;;;-0.84;100.00;101045.19;5061369;28;20103;-77
2023/12/08 04:19:53;;;;;;;1.08;1.00;;;;;;;-0.70;100.00;101111.25;5050996;28;20036;-77
2023/12/08 04:22:18;;;;;;;6.93;6.53;;;;;;;-0.56;100.00;101088.84;5055141;28;20049;-76
2023/12/08 04:24:44;;;;;;;0.40;0.40;;;;;;;-0.91;100.00;101010.47;5058861;28;20082;-77
2023/12/08 04:27:09;;;;;;;0.73;0.73;;;;;;;-0.36;100.00;101104.50;5045791;28;20102;-76
2023/12/08 04:29:35;;;;;;;0.40;0.40;;;;;;;-0.81;100.00;101001.56;5062605;28;20048;-79
2023/12/08 04:32:00;;;;;;;0.40;0.40;;;;;;;-0.12;100.00;101135.91;5044232;28;20546;-76
2023/12/08 04:34:26;;;;;;;1.25;1.25;;;;;;;-0.20;100.00;101122.59;5063172;28;20048;-77
2023/12/08 04:36:51;;;;;;;13.10;12.20;;;;;;;-0.33;100.00;101112.41;5064410;28;20067;-77
2023/12/08 04:39:18;;;;;;;2.25;2.15;;;;;;;-0.34;100.00;101111.53;5032267;28;20056;-76
2023/12/08 04:41:43;;;;;;;0.30;0.30;;;;;;;-0.88;100.00;101010.63;5045810;28;20060;-78
2023/12/08 04:44:09;;;;;;;0.60;0.60;;;;;;;-1.21;100.00;100949.53;5064469;28;20671;-78
2023/12/08 04:46:36;;;;;;;0.40;0.40;;;;;;;-0.17;100.00;101116.72;5072283;28;20024;-78
2023/12/08 04:49:03;;;;;;;2.75;2.65;;;;;;;-0.10;100.00;101123.97;5064340;28;20037;-77
2023/12/08 04:51:28;;;;;;;2.28;2.17;;;;;;;-0.31;100.00;101091.06;5066904;28;20431;-80
2023/12/08 04:53:54;;;;;;;10.98;10.32;;;;;;;-0.04;100.00;101132.94;5063345;28;20059;-76
2023/12/08 04:56:19;;;;;;;0.93;0.93;;;;;;;0.01;100.00;101138.34;5048999;28;20036;-78
2023/12/08 04:58:47;;;;;;;0.47;0.47;;;;;;;-0.11;100.00;101135.13;5067253;28;20071;-78
2023/12/08 05:01:14;;;;;;;4.15;3.90;;;;;;;-0.64;100.00;101047.16;5065588;28;20709;-76
2023/12/08 05:03:40;;;;;;;0.40;0.40;;;;;;;-1.00;100.00;100981.63;5061842;28;20106;-77
2023/12/08 05:06:07;;;;;;;0.40;0.40;;;;;;;-0.16;100.00;101126.25;5063564;28;20055;-76
2023/12/08 05:08:33;;;;;;;0.38;0.38;;;;;;;-0.37;100.00;101074.38;5067033;28;20052;-76
2023/12/08 05:10:58;;;;;;;3.50;3.25;;;;;;;-0.15;100.00;101125.44;5065235;28;20036;-77
2023/12/08 05:13:25;;;;;;;7.70;5.63;;;;;;;-0.12;100.00;101146.22;5069632;28;20056;-77
2023/12/08 05:15:50;;;;;;;3.60;3.30;;;;;;;-1.33;100.00;101002.09;5065929;28;20808;-77
2023/12/08 05:18:16;;;;;;;7.05;6.28;;;;;;;-0.91;100.00;101013.03;5068103;28;20052;-77
2023/12/08 05:20:42;;;;;;;0.90;0.88;;;;;;;-0.68;100.00;101016.91;5058412;28;20052;-76
2023/12/08 05:23:08;;;;;;;0.40;0.40;;;;;;;-0.43;100.00;101037.13;5065896;28;20036;-79
2023/12/08 05:25:34;;;;;;;0.60;0.60;;;;;;;-0.64;100.00;101008.50;5048945;28;20046;-75
2023/12/08 05:28:00;;;;;;;8.32;7.68;;;;;;;0.02;100.00;101118.59;5061526;28;20155;-79
2023/12/08 05:30:27;;;;;;;0.40;0.40;;;;;;;-0.97;100.00;101004.97;5055359;28;20132;-77
2023/12/08 05:32:53;;;;;;;0.70;0.65;;;;;;;-0.87;100.00;100986.66;5069795;28;20048;-75
2023/12/08 05:35:19;;;;;;;0.60;0.60;;;;;;;-0.17;100.00;101086.66;5056593;28;20060;-78
2023/12/08 05:37:46;;;;;;;1.38;0.93;;;;;;;-0.44;100.00;101053.41;5064618;28;20730;-78
2023/12/08 05:40:12;;;;;;;1.75;1.65;;;;;;;0.08;100.00;101129.25;5061501;28;20459;-80
2023/12/08 05:42:37;;;;;;;2.53;2.38;;;;;;;0.01;100.00;101115.13;5053092;28;20123;-77
2023/12/08 05:45:05;;;;;;;0.73;0.50;;;;;;;-0.56;100.00;101020.91;5059833;28;20056;-77
2023/12/08 05:47:32;;;;;;;6.78;6.43;;;;;;;-0.66;100.00;100988.63;5057605;28;20048;-78
2023/12/08 05:49:58;;;;;;;0.40;0.40;;;;;;;-0.48;100.00;101029.97;5047643;28;20040;-72
2023/12/08 05:52:23;;;;;;;3.22;2.92;;;;;;;0.09;100.00;101134.47;5062999;28;20407;-73
2023/12/08 05:54:49;;;;;;;9.65;9.20;;;;;;;-0.52;100.00;101017.72;5046708;28;20147;-74
2023/12/08 05:57:14;;;;;;;0.70;0.70;;;;;;;0.16;100.00;101134.03;5059878;28;20052;-73
2023/12/08 05:59:40;;;;;;;9.35;8.55;;;;;;;0.04;100.00;101135.94;5043263;28;20075;-75
2023/12/08 06:02:05;;;;;;;1.60;0.95;;;;;;;0.15;100.00;101146.84;5043127;28;20064;-77
2023/12/08 06:04:31;;;;;;;0.60;0.60;;;;;;;0.06;100.00;101118.84;5059376;28;20139;-73
2023/12/08 06:06:57;;;;;;;1.67;1.58;;;;;;;-0.29;100.00;101057.63;5021014;28;20584;-77
2023/12/08 06:09:23;;;;;;;0.88;0.88;;;;;;;-1.03;100.00;100926.47;5046146;28;20299;-72
2023/12/08 06:11:49;;;;;;;1.90;1.80;;;;;;;0.12;100.00;101120.88;5060946;28;20086;-74
2023/12/08 06:14:14;;;;;;;0.80;0.80;;;;;;;-0.37;100.00;101052.06;5060639;28;20517;-73
2023/12/08 06:16:40;;;;;;;3.03;1.38;;;;;;;0.22;100.00;101145.47;5060073;28;20029;-75
2023/12/08 06:19:05;;;;;;;4.85;4.55;;;;;;;-0.62;100.00;101069.56;5044343;28;20057;-75
2023/12/08 06:21:31;;;;;;;5.80;5.50;;;;;;;-0.84;100.00;101050.34;5040256;28;20124;-78
2023/12/08 06:23:56;;;;;;;0.90;0.88;;;;;;;-0.13;100.00;101127.28;5065940;28;20048;-75
2023/12/08 06:26:24;;;;;;;7.75;7.20;;;;;;;0.06;100.00;101133.44;5066500;28;20047;-76
2023/12/08 06:28:49;;;;;;;0.88;0.88;;;;;;;-0.73;100.00;101051.81;5048354;28;20045;-75
2023/12/08 06:31:15;;;;;;;16.33;15.10;;;;;;;-0.70;100.00;101076.88;5059822;28;20048;-74
2023/12/08 06:33:40;;;;;;;0.40;0.40;;;;;;;-0.79;100.00;101035.13;5058730;28;20098;-75
2023/12/08 06:36:06;;;;;;;0.63;0.63;;;;;;;-0.26;100.00;101120.59;5064548;28;20458;-73
2023/12/08 06:38:33;;;;;;;1.17;1.17;;;;;;;-0.14;100.00;101178.78;5066350;28;20049;-75
2023/12/08 06:41:00;;;;;;;5.38;5.07;;;;;;;-0.37;100.00;101178.41;5039291;28;20464;-75
2023/12/08 06:43:25;;;;;;;6.85;6.47;;;;;;;-0.84;100.00;101065.81;5061597;28;20120;-75
2023/12/08 06:45:51;;;;;;;5.07;4.88;;;;;;;-0.67;100.00;101082.19;5061163;28;20056;-74
2023/12/08 06:48:17;;;;;;;6.43;6.03;;;;;;;-0.39;100.00;101084.63;5062665;28;20040;-75
2023/12/08 06:50:43;;;;;;;0.90;0.90;;;;;;;-0.31;100.00;101154.63;5061957;28;20040;-73
2023/12/08 06:53:08;;;;;;;3.90;3.70;;;;;;;-0.20;100.00;101148.38;5061984;28;20429;-82
2023/12/08 06:55:35;;;;;;;8.73;8.27;;;;;;;-0.27;100.00;101081.81;5064544;28;20074;-74
2023/12/08 06:58:01;;;;;;;0.75;0.75;;;;;;;0.37;100.00;101167.81;5057616;28;20074;-73
2023/12/08 07:00:26;;;;;;;0.80;0.80;;;;;;;-0.10;100.00;101104.22;5037000;28;20057;-74
2023/12/08 07:02:52;;;;;;;0.77;0.77;;;;;;;0.34;100.00;101169.34;5050723;28;20866;-78
2023/12/08 07:05:19;;;;;;;4.65;4.22;;;;;;;0.34;100.00;101167.66;5063666;28;20476;-73
2023/12/08 07:07:46;;;;;;;0.40;0.40;;;;;;;0.59;100.00;101189.63;5047249;28;20041;-73
2023/12/08 07:10:15;;;;;;;3.60;3.42;;;;;;;0.06;100.00;101084.44;5045309;28;20136;-78
2023/12/08 07:12:42;;;;;;;1.17;1.17;;;;;;;0.09;100.00;101087.16;5026815;28;20045;-73
2023/12/08 07:15:08;;;;;;;0.45;0.45;;;;;;;-0.26;100.00;101122.25;5043792;28;20063;-77
2023/12/08 07:17:34;;;;;;;0.73;0.73;;;;;;;0.57;100.00;101209.31;5045196;28;20045;-73
2023/12/08 07:20:00;;;;;;;1.08;1.08;;;;;;;0.50;100.00;101208.09;5028258;28;20514;-77
2023/12/08 07:22:26;;;;;;;2.53;1.98;;;;;;;0.47;100.00;101182.13;5043130;28;20118;-75
2023/12/08 07:24:51;;;;;;;0.45;0.45;;;;;;;-0.25;100.00;101063.03;5037740;28;20069;-79
2023/12/08 07:27:17;;;;;;;2.80;2.70;;;;;;;0.60;100.00;101197.44;5025646;28;20052;-74
2023/12/08 07:29:43;;;;;;;0.52;0.52;;;;;;;0.32;100.00;101169.25;5046710;28;20041;-76
2023/12/08 07:32:10;;;;;;;2.17;2.08;;;;;;;0.73;100.00;101206.72;5057240;28;20620;-77
2023/12/08 07:34:37;;;;;;;1.23;1.13;;;;;;;-0.05;100.00;101086.41;5062295;28;20060;-72
2023/12/08 07:37:02;;;;;;;11.27;10.10;;;;;;;0.65;100.00;101194.22;5061905;28;20218;-73
2023/12/08 07:39:28;;;;;;;4.93;4.63;;;;;;;0.10;100.00;101097.56;5063443;28;20488;-76
2023/12/08 07:41:53;;;;;;;1.17;0.65;;;;;;;0.72;100.00;101198.88;5022841;28;20198;-74
2023/12/08 07:44:19;;;;;;;2.00;1.90;;;;;;;0.77;100.00;101197.44;5048727;28;20048;-74
2023/12/08 07:46:44;;;;;;;1.10;1.05;;;;;;;0.68;100.00;101187.53;5064357;28;20035;-75
2023/12/08 07:49:10;;;;;;;13.25;12.50;;;;;;;0.17;100.00;101096.22;5063352;28;20451;-75
2023/12/08 07:51:36;;;;;;;0.40;0.40;;;;;;;0.68;100.00;101179.78;5062292;28;20134;-74
2023/12/08 07:54:03;;;;;;;4.60;4.22;;;;;;;0.77;100.00;101194.84;5038797;28;20045;-73
2023/12/08 07:56:31;;;;;;;0.63;0.63;;;;;;;0.28;100.00;101101.91;5061618;28;20052;-75
2023/12/08 07:58:56;;;;;;;8.20;7.68;;;;;;;0.19;100.00;101086.84;5067629;28;20016;-72
2023/12/08 08:01:22;;;;;;;0.80;0.80;;;;;;;0.73;100.00;101173.16;5067709;28;20040;-75
2023/12/08 08:03:48;;;;;;;1.77;1.67;;;;;;;0.48;100.00;101109.00;5058762;28;20550;-74
2023/12/08 08:06:15;;;;;;;0.52;0.52;;;;;;;0.29;100.00;101081.38;5041227;28;20209;-76
2023/12/08 08:08:40;;;;;;;1.63;1.52;;;;;;;0.89;100.00;101172.25;5053540;28;20047;-76
2023/12/08 08:11:06;;;;;;;1.80;1.70;;;;;;;0.69;100.00;101127.31;5058695;28;20040;-73
2023/12/08 08:13:31;;;;;;;2.35;2.25;;;;;;;1.08;100.00;101197.34;5061531;28;20438;-77
2023/12/08 08:15:57;;;;;;;1.48;1.38;;;;;;;-0.23;100.00;100984.06;5066032;28;20045;-73
2023/12/08 08:18:22;;;;;;;1.05;1.05;;;;;;;0.48;100.00;101079.72;5064137;28;20190;-74
2023/12/08 08:20:49;;;;;;;1.42;1.33;;;;;;;0.16;100.00;101102.16;5048419;28;20079;-74
2023/12/08 08:23:14;;;;;;;4.32;4.07;;;;;;;0.36;100.00;101103.22;5060541;28;20526;-73
2023/12/08 08:25:40;;;;;;;2.10;1.92;;;;;;;0.74;100.00;101200.75;5064002;28;20032;-77
2023/12/08 08:28:07;;;;;;;0.82;0.82;;;;;;;0.09;100.00;101046.75;5060280;28;20041;-74
2023/12/08 08:30:33;;;;;;;1.65;1.55;;;;;;;0.67;100.00;101165.06;5060158;28;20064;-72
2023/12/08 08:32:59;;;;;;;3.67;3.47;;;;;;;0.95;100.00;101194.91;5064330;28;20045;-74
2023/12/08 08:35:26;;;;;;;0.82;0.82;;;;;;;0.95;100.00;101164.78;5044025;28;20051;-76
2023/12/08 08:37:51;;;;;;;2.17;2.08;;;;;;;1.03;100.00;101162.59;5066054;28;20032;-75
2023/12/08 08:40:17;;;;;;;1.55;1.45;;;;;;;1.11;100.00;101178.50;5060403;28;20053;-76
2023/12/08 08:42:42;;;;;;;5.40;5.10;;;;;;;1.07;100.00;101148.16;5063035;28;20052;-74
2023/12/08 08:45:08;;;;;;;3.05;2.95;;;;;;;1.11;100.00;101163.88;5061059;28;20133;-72
2023/12/08 08:47:33;;;;;;;6.22;5.93;;;;;;;1.00;100.00;101176.25;5063396;28;20044;-73
2023/12/08 08:50:00;;;;;;;0.98;0.98;;;;;;;0.77;100.00;101122.53;5062788;28;20035;-81
2023/12/08 08:52:26;;;;;;;0.80;0.80;;;;;;;1.14;100.00;101171.78;5040569;28;20056;-82
2023/12/08 08:54:53;;;;;;;24.65;10.20;;;;;;;1.24;100.00;101174.03;5053901;28;20513;-75
2023/12/08 08:57:18;;;;;;;2.33;2.15;;;;;;;1.35;100.00;101204.69;5050618;28;20053;-73
2023/12/08 08:59:45;;;;;;;0.40;0.40;;;;;;;1.20;100.00;101190.19;5046997;28;20048;-73
2023/12/08 09:02:11;;;;;;;4.35;4.15;;;;;;;1.17;100.00;101184.88;5061042;28;20033;-75
2023/12/08 09:04:37;;;;;;;13.98;7.13;;;;;;;0.67;100.00;101081.56;5045854;28;20029;-73
2023/12/08 09:07:03;;;;;;;3.08;2.88;;;;;;;1.19;100.00;101182.34;5055932;28;20052;-74
2023/12/08 09:09:28;;;;;;;1.02;1.02;;;;;;;0.71;100.00;101179.06;5042754;28;20156;-74
2023/12/08 09:11:54;;;;;;;0.85;0.68;;;;;;;1.15;100.00;101188.19;5061993;28;21504;-75
2023/12/08 09:14:19;;;;;;;0.50;0.50;;;;;;;1.11;100.00;101173.34;5069077;28;20028;-76
2023/12/08 09:16:46;;;;;;;0.40;0.40;;;;;;;0.75;100.00;101083.72;5060109;28;20024;-77
2023/12/08 09:19:12;;;;;;;0.82;0.82;;;;;;;0.58;100.00;101069.94;5065018;28;20059;-73
2023/12/08 09:21:38;;;;;;;3.50;3.30;;;;;;;0.82;100.00;101098.72;5063105;28;20128;-77
2023/12/08 09:24:05;;;;;;;24.15;13.35;;;;;;;0.29;100.00;100993.59;5065570;28;20048;-79
2023/12/08 09:26:31;;;;;;;1.17;1.17;;;;;;;0.52;100.00;101043.81;5064842;28;20051;-76
2023/12/08 09:28:57;;;;;;;2.75;2.60;;;;;;;1.20;100.00;101150.53;5055156;28;20032;-75
2023/12/08 09:31:22;;;;;;;9.85;9.18;;;;;;;0.56;100.00;101045.75;5064204;28;20386;-76
2023/12/08 09:33:48;;;;;;;5.85;5.55;;;;;;;1.22;100.00;101136.00;5068315;28;20044;-81
2023/12/08 09:36:14;;;;;;;2.15;2.05;;;;;;;1.37;100.00;101157.41;5052619;28;20064;-74
2023/12/08 09:38:40;;;;;;;1.85;1.75;;;;;;;1.00;100.00;101147.81;5055004;28;20057;-76
2023/12/08 09:41:05;;;;;;;0.55;0.55;;;;;;;0.04;100.00;101052.50;5038241;28;20044;-75
2023/12/08 09:43:57;;;;;;;2.42;2.33;;;;;;;1.20;100.00;101145.38;5062082;28;20076;-75
2023/12/08 09:46:23;;;;;;;8.13;7.63;;;;;;;0.76;100.00;101103.56;5060036;28;20053;-73
2023/12/08 09:48:51;;;;;;;0.90;0.90;;;;;;;0.66;100.00;101047.09;5062069;28;20058;-75
2023/12/08 09:51:18;;;;;;;7.00;6.55;;;;;;;1.22;100.00;101129.13;5063110;28;20068;-76
2023/12/08 09:53:46;;;;;;;3.50;3.30;;;;;;;0.28;100.00;100934.16;5053477;28;20048;-73
2023/12/08 09:56:13;;;;;;;5.28;3.15;;;;;;;0.18;100.00;100999.91;5063238;28;20476;-76
2023/12/08 09:58:40;;;;;;;6.70;6.40;;;;;;;0.27;100.00;101131.13;5065274;28;20028;-75
2023/12/08 10:01:08;;;;;;;7.10;6.72;;;;;;;-0.56;100.00;100990.00;5065401;28;20048;-75
2023/12/08 10:03:34;;;;;;;0.70;0.70;;;;;;;0.76;100.00;101139.72;5042916;28;20048;-75
2023/12/08 10:06:01;;;;;;;1.58;1.48;;;;;;;0.36;100.00;101031.81;5064401;28;20076;-77
2023/12/08 10:08:29;;;;;;;0.95;0.95;;;;;;;0.92;100.00;101087.16;5065633;28;20771;-76
2023/12/08 10:10:55;;;;;;;3.17;3.05;;;;;;;1.18;100.00;101137.53;5067696;28;20025;-73
2023/12/08 10:13:20;;;;;;;0.50;0.50;;;;;;;0.49;100.00;101001.47;5039710;28;20060;-74
2023/12/08 10:15:46;;;;;;;3.10;2.92;;;;;;;1.26;100.00;101136.22;5064503;28;20098;-72
2023/12/08 10:18:33;;;;;;;0.40;0.40;;;;;;;1.38;100.00;101137.59;5063156;28;20057;-73
2023/12/08 10:21:15;;;;;;;20.10;18.25;;;;;;;1.40;100.00;101123.06;5054974;28;20056;-75
2023/12/08 10:23:45;;;;;;;1.50;1.40;;;;;;;0.68;100.00;100986.09;5063680;28;20502;-72
2023/12/08 10:26:12;;;;;;;6.03;5.63;;;;;;;0.99;100.00;101034.97;5064351;28;20029;-74
2023/12/08 10:28:39;;;;;;;0.68;0.68;;;;;;;1.05;100.00;101055.94;5059162;28;20079;-76
2023/12/08 10:31:08;;;;;;;2.45;2.35;;;;;;;0.86;100.00;101016.19;5060600;28;20298;-73
2023/12/08 10:33:34;;;;;;;3.92;3.70;;;;;;;1.10;100.00;101078.50;5064955;28;20441;-74
2023/12/08 10:35:59;;;;;;;1.13;1.13;;;;;;;1.30;100.00;101119.16;5066151;28;20056;-80
2023/12/08 10:38:25;;;;;;;3.60;3.40;;;;;;;1.15;100.00;101089.97;5046066;28;20043;-77
2023/12/08 10:40:55;;;;;;;1.20;1.20;;;;;;;0.83;100.00;101004.03;5041895;28;20033;-74
2023/12/08 10:43:25;;;;;;;4.38;4.13;;;;;;;1.42;100.00;101087.81;5062351;28;20079;-77
2023/12/08 10:45:55;;;;;;;3.83;3.63;;;;;;;0.86;100.00;101000.69;5063681;28;20056;-79
2023/12/08 10:48:23;;;;;;;1.80;1.73;;;;;;;0.82;100.00;101082.34;5043172;28;20537;-73
2023/12/08 10:50:52;;;;;;;0.80;0.80;;;;;;;0.70;100.00;100988.72;5061617;28;20075;-74
2023/12/08 10:53:19;;;;;;;5.05;4.65;;;;;;;1.52;100.00;101086.56;5061163;28;20476;-78
2023/12/08 10:55:55;;;;;;;10.45;9.70;;;;;;;1.57;100.00;101070.47;5064762;28;20041;-81
2023/12/08 10:58:22;;;;;;;2.58;2.47;;;;;;;1.11;100.00;100992.44;5062580;28;20048;-75
2023/12/08 11:00:53;;;;;;;1.42;1.38;;;;;;;1.54;100.00;101072.00;5061940;28;20048;-74
2023/12/08 11:03:23;;;;;;;6.07;5.40;;;;;;;1.25;100.00;101025.88;5060370;28;20128;-76
2023/12/08 11:05:59;;;;;;;1.70;1.60;;;;;;;1.05;100.00;100981.00;5066599;28;20127;-77
2023/12/08 11:08:27;;;;;;;2.55;2.45;;;;;;;1.51;100.00;101057.22;5047638;28;20135;-74
2023/12/08 11:10:57;;;;;;;2.55;2.45;;;;;;;1.01;100.00;100988.53;5065015;28;20069;-74
2023/12/08 11:13:28;;;;;;;2.97;2.83;;;;;;;1.72;100.00;101069.41;5067915;28;20678;-77
2023/12/08 11:16:35;;;;;;;0.77;0.77;;;;;;;1.80;100.00;101068.94;5054791;28;20055;-80